createdAt,value
2022-08-10T00:00:01.053Z,4.10
2022-08-10T00:03:11.225Z,3.40
2022-08-10T00:06:09.115Z,3.50
2022-08-10T00:09:08.032Z,3.60
2022-08-10T00:12:09.440Z,3.60
2022-08-10T00:15:07.084Z,3.80
2022-08-10T00:18:05.942Z,3.60
2022-08-10T00:21:05.720Z,3.60
2022-08-10T00:24:04.522Z,3.30
2022-08-10T00:27:58.905Z,3.10
2022-08-10T00:30:26.980Z,3.20
2022-08-10T00:33:27.613Z,3.20
2022-08-10T00:36:28.996Z,3.40
2022-08-10T00:39:36.475Z,3.40
2022-08-10T00:42:37.703Z,3.30
2022-08-10T00:45:41.996Z,2.90
2022-08-10T00:48:40.854Z,3.30
2022-08-10T00:51:48.297Z,3.20
2022-08-10T00:54:47.720Z,3.40
2022-08-10T00:57:45.589Z,2.90
2022-08-10T01:00:54.962Z,3.30
2022-08-10T01:04:39.886Z,3.10
2022-08-10T01:07:43.974Z,2.90
2022-08-10T01:11:04.152Z,3.10
2022-08-10T01:14:11.909Z,3.10
2022-08-10T01:17:14.211Z,3.40
2022-08-10T01:20:30.111Z,3.30
2022-08-10T01:23:47.698Z,3.10
2022-08-10T01:27:02.489Z,3.40
2022-08-10T01:30:08.092Z,3.10
2022-08-10T01:33:08.372Z,2.90
2022-08-10T01:36:13.099Z,3.10
2022-08-10T01:39:13.056Z,3.00
2022-08-10T01:42:13.822Z,3.70
2022-08-10T01:45:13.640Z,3.20
2022-08-10T01:48:29.022Z,2.90
2022-08-10T01:51:33.312Z,2.90
2022-08-10T01:54:31.622Z,2.90
2022-08-10T02:00:29.829Z,3.20
2022-08-10T02:03:28.195Z,3.10
2022-08-10T02:06:28.117Z,3.10
2022-08-10T02:09:27.744Z,3.00
2022-08-10T02:12:30.354Z,3.00
2022-08-10T02:15:34.368Z,3.00
2022-08-10T02:18:31.413Z,3.10
2022-08-10T02:21:31.938Z,3.00
2022-08-10T02:24:31.644Z,2.90
2022-08-10T02:27:29.462Z,3.20
2022-08-10T02:30:29.931Z,2.90
2022-08-10T02:33:28.987Z,3.20
2022-08-10T02:36:29.411Z,2.90
2022-08-10T02:39:28.036Z,3.00
2022-08-10T02:45:22.799Z,3.00
2022-08-10T02:45:48.967Z,3.10
2022-08-10T02:48:50.681Z,2.90
2022-08-10T02:52:07.540Z,3.10
2022-08-10T02:55:18.379Z,3.00
2022-08-10T02:58:19.603Z,2.90
2022-08-10T03:01:27.060Z,3.20
2022-08-10T03:04:57.083Z,2.80
2022-08-10T03:07:52.758Z,3.60
2022-08-10T03:10:52.202Z,2.80
2022-08-10T03:13:59.795Z,3.00
2022-08-10T03:16:59.772Z,3.10
2022-08-10T03:20:35.674Z,3.20
2022-08-10T03:23:21.231Z,3.00
2022-08-10T03:26:20.841Z,3.00
2022-08-10T03:29:19.999Z,2.90
2022-08-10T03:32:17.042Z,3.20
2022-08-10T03:35:15.769Z,2.90
2022-08-10T03:38:13.842Z,3.10
2022-08-10T03:41:16.482Z,3.00
2022-08-10T03:44:17.681Z,2.90
2022-08-10T03:47:18.617Z,3.60
2022-08-10T03:50:28.041Z,3.10
2022-08-10T03:54:06.230Z,2.80
2022-08-10T03:56:50.739Z,3.20
2022-08-10T03:59:46.574Z,3.50
2022-08-10T04:02:48.318Z,3.60
2022-08-10T04:05:46.609Z,3.30
2022-08-10T04:08:49.890Z,3.60
2022-08-10T04:11:49.508Z,3.40
2022-08-10T04:14:52.436Z,3.50
2022-08-10T04:18:05.115Z,3.40
2022-08-10T04:21:10.799Z,3.70
2022-08-10T04:24:08.534Z,4.30
2022-08-10T04:27:06.709Z,4.10
2022-08-10T04:30:03.057Z,3.80
2022-08-10T04:33:00.603Z,4.10
2022-08-10T04:35:59.188Z,4.20
2022-08-10T04:38:54.697Z,3.90
2022-08-10T04:41:50.156Z,4.10
2022-08-10T04:44:47.058Z,3.50
2022-08-10T04:47:57.672Z,3.70
2022-08-10T04:50:59.642Z,3.80
2022-08-10T04:54:08.123Z,3.50
2022-08-10T04:57:20.252Z,3.90
2022-08-10T05:00:21.677Z,3.80
2022-08-10T05:03:29.105Z,3.60
2022-08-10T05:06:32.272Z,3.60
2022-08-10T05:09:31.877Z,3.60
2022-08-10T05:12:35.810Z,3.40
2022-08-10T05:15:36.932Z,3.80
2022-08-10T05:18:44.390Z,4.40
2022-08-10T05:22:03.025Z,5.00
2022-08-10T05:25:12.650Z,4.50
2022-08-10T05:28:11.078Z,3.90
2022-08-10T05:31:23.491Z,4.30
2022-08-10T05:34:28.064Z,4.30
2022-08-10T05:38:10.203Z,4.30
2022-08-10T05:40:51.956Z,4.70
2022-08-10T05:43:53.120Z,5.00
2022-08-10T05:46:55.076Z,4.80
2022-08-10T05:49:56.447Z,4.90
2022-08-10T05:53:05.676Z,5.00
2022-08-10T05:56:20.304Z,5.30
2022-08-10T06:00:33.350Z,4.70
2022-08-10T06:02:50.984Z,4.20
2022-08-10T06:05:52.116Z,4.30
2022-08-10T06:08:56.047Z,3.90
2022-08-10T06:12:23.857Z,3.80
2022-08-10T06:15:51.628Z,3.30
2022-08-10T06:18:49.861Z,3.30
2022-08-10T06:22:01.468Z,3.80
2022-08-10T06:25:32.029Z,3.40
2022-08-10T06:28:27.176Z,4.00
2022-08-10T06:31:28.602Z,2.90
2022-08-10T06:34:49.776Z,3.10
2022-08-10T06:37:51.503Z,3.30
2022-08-10T06:41:02.006Z,3.00
2022-08-10T06:44:11.131Z,3.20
2022-08-10T06:47:11.976Z,3.80
2022-08-10T06:50:45.333Z,3.30
2022-08-10T06:53:53.961Z,3.30
2022-08-10T07:00:33.474Z,3.30
2022-08-10T07:03:45.904Z,2.80
2022-08-10T07:06:55.813Z,2.40
2022-08-10T07:10:08.227Z,2.60
2022-08-10T07:14:16.432Z,2.70
2022-08-10T07:16:51.189Z,2.50
2022-08-10T07:20:00.857Z,2.80
2022-08-10T07:23:57.603Z,2.70
2022-08-10T07:26:39.288Z,2.70
2022-08-10T07:29:53.868Z,2.60
2022-08-10T07:32:58.906Z,2.70
2022-08-10T07:35:57.660Z,2.70
2022-08-10T07:39:13.250Z,2.60
2022-08-10T07:42:20.473Z,2.70
2022-08-10T07:45:33.266Z,2.70
2022-08-10T07:48:52.353Z,3.10
2022-08-10T07:52:00.552Z,3.00
2022-08-10T07:55:04.976Z,2.60
2022-08-10T07:58:10.411Z,2.90
2022-08-10T08:01:12.547Z,2.60
2022-08-10T08:04:19.074Z,2.90
2022-08-10T08:07:22.308Z,3.40
2022-08-10T08:10:21.979Z,3.40
2022-08-10T08:13:35.230Z,3.30
2022-08-10T08:16:40.156Z,3.40
2022-08-10T08:19:50.237Z,3.20
2022-08-10T08:24:04.728Z,3.00
2022-08-10T08:26:20.318Z,2.80
2022-08-10T08:29:29.071Z,3.10
2022-08-10T08:32:48.035Z,4.10
2022-08-10T08:35:56.853Z,3.60
2022-08-10T08:39:12.480Z,3.00
2022-08-10T08:42:59.210Z,2.80
2022-08-10T08:46:34.216Z,2.70
2022-08-10T08:50:07.584Z,2.50
2022-08-10T08:54:02.849Z,2.50
2022-08-10T08:57:45.674Z,2.80
2022-08-10T09:00:52.693Z,2.40
2022-08-10T09:04:36.245Z,2.60
2022-08-10T09:08:23.878Z,2.90
2022-08-10T09:11:35.444Z,2.60
2022-08-10T09:14:49.073Z,3.50
2022-08-10T09:18:07.278Z,3.70
2022-08-10T09:21:13.282Z,3.10
2022-08-10T09:24:20.530Z,3.00
2022-08-10T09:27:27.594Z,2.60
2022-08-10T09:30:52.424Z,2.50
2022-08-10T09:36:26.172Z,2.40
2022-08-10T09:38:02.459Z,2.30
2022-08-10T09:41:25.498Z,2.20
2022-08-10T09:44:57.545Z,2.40
2022-08-10T09:48:18.765Z,2.40
2022-08-10T09:51:48.189Z,2.60
2022-08-10T09:55:03.402Z,2.20
2022-08-10T09:58:29.092Z,2.40
2022-08-10T10:02:02.705Z,2.20
2022-08-10T10:05:21.306Z,2.20
2022-08-10T10:09:10.417Z,2.20
2022-08-10T10:12:31.370Z,2.10
2022-08-10T10:15:50.313Z,2.30
2022-08-10T10:19:05.373Z,2.20
2022-08-10T10:22:28.107Z,2.20
2022-08-10T10:25:50.909Z,2.10
2022-08-10T10:29:44.670Z,2.20
2022-08-10T10:32:42.237Z,2.10
2022-08-10T10:35:51.166Z,2.00
2022-08-10T10:38:56.718Z,1.90
2022-08-10T10:42:44.328Z,1.80
2022-08-10T10:45:54.652Z,2.00
2022-08-10T10:49:13.401Z,1.90
2022-08-10T10:52:21.987Z,2.00
2022-08-10T10:56:14.338Z,2.00
2022-08-10T10:59:55.162Z,2.20
2022-08-10T11:03:13.916Z,2.20
2022-08-10T11:06:40.517Z,2.40
2022-08-10T11:10:03.561Z,2.70
2022-08-10T11:14:25.270Z,2.20
2022-08-10T11:16:57.237Z,1.90
2022-08-10T11:20:09.268Z,1.90
2022-08-10T11:23:33.460Z,1.70
2022-08-10T11:26:54.168Z,1.60
2022-08-10T11:30:08.591Z,1.90
2022-08-10T11:33:32.559Z,1.50
2022-08-10T11:36:55.323Z,1.40
2022-08-10T11:39:59.569Z,1.70
2022-08-10T11:43:17.380Z,3.30
2022-08-10T11:46:38.355Z,3.40
2022-08-10T11:49:46.431Z,3.10
2022-08-10T11:52:56.108Z,2.60
2022-08-10T11:56:11.506Z,2.80
2022-08-10T11:59:40.505Z,2.30
2022-08-10T12:02:51.995Z,2.10
2022-08-10T12:05:57.132Z,2.10
2022-08-10T12:10:05.581Z,1.90
2022-08-10T12:12:39.247Z,2.10
2022-08-10T12:15:53.369Z,1.70
2022-08-10T12:19:15.480Z,2.10
2022-08-10T12:22:30.395Z,3.60
2022-08-10T12:25:55.875Z,4.00
2022-08-10T12:29:06.094Z,5.00
2022-08-10T12:32:27.585Z,3.80
2022-08-10T12:35:56.252Z,4.10
2022-08-10T12:39:12.233Z,3.60
2022-08-10T12:42:36.900Z,2.60
2022-08-10T12:46:10.442Z,2.70
2022-08-10T12:49:20.438Z,2.40
2022-08-10T12:52:39.389Z,2.90
2022-08-10T12:55:44.893Z,2.40
2022-08-10T12:58:57.873Z,2.00
2022-08-10T13:02:15.090Z,2.20
2022-08-10T13:05:54.723Z,1.70
2022-08-10T13:09:24.430Z,1.60
2022-08-10T13:12:41.952Z,1.80
2022-08-10T13:15:53.922Z,1.50
2022-08-10T13:19:09.501Z,1.20
2022-08-10T13:25:35.406Z,1.20
2022-08-10T13:29:12.945Z,1.20
2022-08-10T13:32:22.905Z,1.20
2022-08-10T13:35:37.367Z,1.40
2022-08-10T13:38:56.429Z,1.50
2022-08-10T13:42:01.307Z,1.30
2022-08-10T13:45:17.420Z,1.40
2022-08-10T13:51:54.552Z,1.30
2022-08-10T13:55:04.446Z,1.20
2022-08-10T13:58:07.522Z,1.10
2022-08-10T14:01:19.451Z,1.00
2022-08-10T14:04:33.551Z,1.10
2022-08-10T14:08:00.772Z,1.00
2022-08-10T14:11:28.103Z,1.10
2022-08-10T14:14:37.520Z,1.30
2022-08-10T14:17:46.713Z,1.10
2022-08-10T14:20:57.481Z,1.30
2022-08-10T14:24:09.553Z,1.10
2022-08-10T14:27:25.424Z,1.10
2022-08-10T14:34:18.410Z,1.30
2022-08-10T14:37:44.604Z,1.40
2022-08-10T14:40:53.014Z,1.70
2022-08-10T14:44:04.033Z,1.40
2022-08-10T14:47:52.495Z,1.40
2022-08-10T14:50:54.962Z,1.50
2022-08-10T14:54:06.748Z,1.50
2022-08-10T14:57:19.256Z,1.60
2022-08-10T15:00:31.519Z,1.70
2022-08-10T15:03:59.492Z,1.40
2022-08-10T15:07:15.833Z,1.10
2022-08-10T15:10:27.944Z,1.10
2022-08-10T15:14:29.423Z,1.50
2022-08-10T15:17:13.499Z,1.30
2022-08-10T15:20:34.921Z,1.30
2022-08-10T15:24:05.497Z,1.30
2022-08-10T15:27:01.492Z,1.10
2022-08-10T15:30:08.376Z,1.20
2022-08-10T15:34:02.508Z,1.20
2022-08-10T15:37:39.263Z,1.20
2022-08-10T15:40:53.595Z,1.10
2022-08-10T15:44:02.518Z,1.10
2022-08-10T15:47:09.332Z,1.00
2022-08-10T15:50:26.011Z,1.30
2022-08-10T15:53:46.928Z,1.20
2022-08-10T15:56:53.755Z,1.20
2022-08-10T15:59:59.639Z,1.40
2022-08-10T16:03:20.519Z,1.30
2022-08-10T16:06:32.482Z,1.10
2022-08-10T16:10:23.637Z,1.40
2022-08-10T16:13:51.058Z,1.50
2022-08-10T16:17:04.599Z,1.20
2022-08-10T16:20:15.474Z,1.20
2022-08-10T16:23:27.172Z,1.40
2022-08-10T16:26:44.090Z,1.70
2022-08-10T16:29:56.544Z,1.50
2022-08-10T16:33:06.324Z,1.40
2022-08-10T16:36:25.350Z,1.40
2022-08-10T16:39:58.599Z,1.60
2022-08-10T16:42:57.935Z,1.50
2022-08-10T16:46:05.562Z,1.70
2022-08-10T16:49:22.028Z,1.50
2022-08-10T16:52:41.560Z,1.50
2022-08-10T16:55:49.462Z,1.40
2022-08-10T16:58:59.335Z,1.40
2022-08-10T17:02:05.754Z,1.40
2022-08-10T17:05:17.163Z,1.40
2022-08-10T17:08:48.608Z,1.60
2022-08-10T17:11:52.925Z,1.60
2022-08-10T17:15:09.819Z,1.80
2022-08-10T17:18:30.025Z,1.60
2022-08-10T17:21:51.033Z,1.70
2022-08-10T17:25:02.566Z,1.50
2022-08-10T17:28:33.301Z,1.70
2022-08-10T17:31:55.027Z,1.70
2022-08-10T17:35:06.601Z,1.70
2022-08-10T17:38:22.583Z,1.80
2022-08-10T17:41:31.600Z,1.80
2022-08-10T17:44:31.277Z,1.90
2022-08-10T17:47:36.438Z,1.50
2022-08-10T17:53:57.200Z,1.80
2022-08-10T17:57:09.396Z,1.80
2022-08-10T18:00:29.620Z,1.90
2022-08-10T18:03:39.354Z,1.90
2022-08-10T18:06:43.650Z,1.80
2022-08-10T18:09:52.467Z,1.90
2022-08-10T18:13:06.537Z,2.10
2022-08-10T18:16:21.353Z,2.30
2022-08-10T18:19:23.345Z,1.70
2022-08-10T18:22:31.583Z,1.70
2022-08-10T18:25:47.467Z,1.90
2022-08-10T18:28:54.237Z,2.00
2022-08-10T18:32:03.217Z,1.90
2022-08-10T18:35:22.641Z,2.20
2022-08-10T18:38:41.701Z,2.30
2022-08-10T18:42:00.660Z,2.40
2022-08-10T18:45:20.456Z,2.00
2022-08-10T18:48:25.200Z,2.20
2022-08-10T18:51:46.786Z,2.00
2022-08-10T18:54:54.719Z,2.10
2022-08-10T18:58:42.656Z,1.90
2022-08-10T19:02:11.561Z,2.10
2022-08-10T19:05:30.879Z,2.00
2022-08-10T19:09:09.675Z,1.80
2022-08-10T19:12:47.543Z,1.90
2022-08-10T19:16:05.329Z,1.80
2022-08-10T19:19:35.478Z,1.80
2022-08-10T19:22:49.774Z,2.00
2022-08-10T19:26:32.891Z,2.20
2022-08-10T19:30:09.002Z,2.10
2022-08-10T19:33:16.201Z,2.10
2022-08-10T19:36:24.105Z,2.30
2022-08-10T19:39:51.200Z,2.20
2022-08-10T19:43:00.837Z,2.80
2022-08-10T19:46:35.325Z,2.40
2022-08-10T19:49:57.598Z,3.00
2022-08-10T19:53:16.098Z,2.70
2022-08-10T19:56:34.024Z,2.80
2022-08-10T20:00:15.246Z,2.80
2022-08-10T20:03:28.061Z,3.00
2022-08-10T20:06:45.729Z,3.10
2022-08-10T20:10:04.693Z,2.80
2022-08-10T20:13:24.176Z,3.20
2022-08-10T20:16:41.703Z,3.30
2022-08-10T20:19:55.194Z,3.40
2022-08-10T20:23:17.290Z,3.00
2022-08-10T20:26:34.287Z,3.40
2022-08-10T20:29:58.996Z,3.20
2022-08-10T20:36:33.661Z,2.90
2022-08-10T20:39:52.925Z,2.90
2022-08-10T20:43:12.315Z,2.80
2022-08-10T20:46:33.724Z,2.90
2022-08-10T20:49:43.637Z,2.70
2022-08-10T20:52:48.172Z,3.00
2022-08-10T20:55:59.580Z,3.10
2022-08-10T20:59:17.730Z,2.80
2022-08-10T21:03:08.692Z,3.10
2022-08-10T21:06:50.813Z,2.60
2022-08-10T21:10:07.602Z,2.80
2022-08-10T21:13:27.547Z,3.00
2022-08-10T21:16:51.682Z,2.80
2022-08-10T21:20:17.658Z,2.70
2022-08-10T21:25:41.674Z,2.80
2022-08-10T21:27:08.179Z,2.90
2022-08-10T21:30:16.100Z,2.80
2022-08-10T21:33:19.081Z,2.90
2022-08-10T21:36:26.447Z,2.80
2022-08-10T21:39:54.906Z,3.00
2022-08-10T21:43:22.334Z,2.80
2022-08-10T21:46:59.009Z,2.70
2022-08-10T21:50:28.614Z,2.70
2022-08-10T21:53:55.730Z,2.40
2022-08-10T21:57:17.706Z,2.60
2022-08-10T22:04:52.356Z,2.70
2022-08-10T22:08:23.594Z,2.60
2022-08-10T22:11:48.835Z,2.60
2022-08-10T22:15:12.755Z,2.60
2022-08-10T22:18:31.511Z,2.30
2022-08-10T22:21:57.918Z,2.50
2022-08-10T22:25:31.765Z,2.40
2022-08-10T22:28:54.183Z,3.00
2022-08-10T22:32:21.001Z,2.30
2022-08-10T22:36:11.598Z,2.80
2022-08-10T22:40:13.121Z,2.40
2022-08-10T22:43:35.402Z,2.40
2022-08-10T22:46:56.342Z,2.40
2022-08-10T22:50:08.027Z,2.60
2022-08-10T22:53:10.265Z,2.40
2022-08-10T22:56:26.097Z,2.60
2022-08-10T22:59:27.475Z,2.70
2022-08-10T23:02:36.324Z,2.70
2022-08-10T23:05:41.651Z,2.40
2022-08-10T23:08:51.620Z,2.50
2022-08-10T23:11:50.560Z,2.50
2022-08-10T23:14:59.299Z,2.20
2022-08-10T23:18:20.103Z,2.60
2022-08-10T23:21:24.796Z,2.60
2022-08-10T23:24:32.338Z,2.60
2022-08-10T23:27:40.488Z,2.60
2022-08-10T23:30:44.078Z,2.40
2022-08-10T23:33:44.579Z,2.70
2022-08-10T23:36:42.682Z,2.30
2022-08-10T23:39:44.418Z,2.60
2022-08-10T23:42:45.730Z,2.30
2022-08-10T23:45:53.675Z,2.40
2022-08-10T23:48:55.573Z,2.60
2022-08-10T23:51:56.921Z,2.50
2022-08-10T23:54:58.364Z,2.90
2022-08-10T23:58:04.265Z,2.90
